sensor_id;sensor_type;location;lat;lon;timestamp;P1;durP1;ratioP1;P2;durP2;ratioP2
32505;SDS011;18955;51.224;8.482;2023-02-01T00:00:20;15.60;;;3.75;;
32505;SDS011;18955;51.224;8.482;2023-02-01T00:02:46;19.92;;;4.85;;
32505;SDS011;18955;51.224;8.482;2023-02-01T00:05:12;26.55;;;5.60;;
32505;SDS011;18955;51.224;8.482;2023-02-01T00:07:39;25.35;;;5.70;;
32505;SDS011;18955;51.224;8.482;2023-02-01T00:10:05;18.35;;;5.13;;
32505;SDS011;18955;51.224;8.482;2023-02-01T00:12:32;22.83;;;4.70;;
32505;SDS011;18955;51.224;8.482;2023-02-01T00:14:59;25.58;;;5.45;;
32505;SDS011;18955;51.224;8.482;2023-02-01T00:17:25;17.88;;;4.78;;
32505;SDS011;18955;51.224;8.482;2023-02-01T00:19:51;19.70;;;4.35;;
32505;SDS011;18955;51.224;8.482;2023-02-01T00:22:17;14.98;;;4.40;;
32505;SDS011;18955;51.224;8.482;2023-02-01T00:24:44;20.23;;;4.32;;
32505;SDS011;18955;51.224;8.482;2023-02-01T00:27:10;20.77;;;4.63;;
32505;SDS011;18955;51.224;8.482;2023-02-01T00:29:36;17.98;;;4.60;;
32505;SDS011;18955;51.224;8.482;2023-02-01T00:32:03;22.15;;;4.30;;
32505;SDS011;18955;51.224;8.482;2023-02-01T00:34:29;22.92;;;4.95;;
32505;SDS011;18955;51.224;8.482;2023-02-01T00:36:56;25.73;;;5.95;;
32505;SDS011;18955;51.224;8.482;2023-02-01T00:39:22;21.33;;;4.95;;
32505;SDS011;18955;51.224;8.482;2023-02-01T00:41:48;23.50;;;5.15;;
32505;SDS011;18955;51.224;8.482;2023-02-01T00:44:14;23.50;;;5.47;;
32505;SDS011;18955;51.224;8.482;2023-02-01T00:46:40;19.00;;;4.07;;
32505;SDS011;18955;51.224;8.482;2023-02-01T00:49:07;16.90;;;5.18;;
32505;SDS011;18955;51.224;8.482;2023-02-01T00:51:34;24.00;;;5.18;;
32505;SDS011;18955;51.224;8.482;2023-02-01T00:54:01;23.27;;;5.85;;
32505;SDS011;18955;51.224;8.482;2023-02-01T00:56:28;23.75;;;5.40;;
32505;SDS011;18955;51.224;8.482;2023-02-01T00:58:55;25.00;;;6.55;;
32505;SDS011;18955;51.224;8.482;2023-02-01T01:01:22;24.05;;;4.88;;
32505;SDS011;18955;51.224;8.482;2023-02-01T01:03:51;25.95;;;5.60;;
32505;SDS011;18955;51.224;8.482;2023-02-01T01:06:21;16.58;;;5.40;;
32505;SDS011;18955;51.224;8.482;2023-02-01T01:08:53;23.90;;;6.57;;
32505;SDS011;18955;51.224;8.482;2023-02-01T01:11:22;20.70;;;6.20;;
32505;SDS011;18955;51.224;8.482;2023-02-01T01:13:50;20.63;;;5.65;;
32505;SDS011;18955;51.224;8.482;2023-02-01T01:16:18;22.25;;;5.63;;
32505;SDS011;18955;51.224;8.482;2023-02-01T01:18:46;21.83;;;6.15;;
32505;SDS011;18955;51.224;8.482;2023-02-01T01:21:14;25.83;;;6.82;;
32505;SDS011;18955;51.224;8.482;2023-02-01T01:23:41;21.83;;;6.85;;
32505;SDS011;18955;51.224;8.482;2023-02-01T01:26:09;23.73;;;6.68;;
32505;SDS011;18955;51.224;8.482;2023-02-01T01:28:38;21.70;;;6.35;;
32505;SDS011;18955;51.224;8.482;2023-02-01T01:31:07;18.35;;;5.65;;
32505;SDS011;18955;51.224;8.482;2023-02-01T01:33:34;19.80;;;5.78;;
32505;SDS011;18955;51.224;8.482;2023-02-01T01:36:00;26.48;;;5.93;;
32505;SDS011;18955;51.224;8.482;2023-02-01T01:38:27;26.35;;;5.72;;
32505;SDS011;18955;51.224;8.482;2023-02-01T01:40:53;17.40;;;5.50;;
32505;SDS011;18955;51.224;8.482;2023-02-01T01:43:21;15.52;;;5.50;;
32505;SDS011;18955;51.224;8.482;2023-02-01T01:45:49;20.27;;;5.85;;
32505;SDS011;18955;51.224;8.482;2023-02-01T01:48:26;27.92;;;5.78;;
32505;SDS011;18955;51.224;8.482;2023-02-01T01:50:57;20.90;;;4.22;;
32505;SDS011;18955;51.224;8.482;2023-02-01T01:53:33;23.85;;;5.50;;
32505;SDS011;18955;51.224;8.482;2023-02-01T01:56:06;17.05;;;5.00;;
32505;SDS011;18955;51.224;8.482;2023-02-01T01:58:32;22.20;;;4.70;;
32505;SDS011;18955;51.224;8.482;2023-02-01T02:00:59;20.25;;;5.00;;
32505;SDS011;18955;51.224;8.482;2023-02-01T02:03:37;17.13;;;3.97;;
32505;SDS011;18955;51.224;8.482;2023-02-01T02:06:10;17.45;;;3.85;;
32505;SDS011;18955;51.224;8.482;2023-02-01T02:08:45;18.65;;;3.83;;
32505;SDS011;18955;51.224;8.482;2023-02-01T02:11:12;18.77;;;4.18;;
32505;SDS011;18955;51.224;8.482;2023-02-01T02:13:42;16.83;;;3.60;;
32505;SDS011;18955;51.224;8.482;2023-02-01T02:43:35;20.98;;;4.82;;
32505;SDS011;18955;51.224;8.482;2023-02-01T02:46:36;18.65;;;3.55;;
32505;SDS011;18955;51.224;8.482;2023-02-01T02:49:27;16.90;;;3.55;;
32505;SDS011;18955;51.224;8.482;2023-02-01T02:52:05;18.05;;;4.10;;
32505;SDS011;18955;51.224;8.482;2023-02-01T02:54:58;15.27;;;4.10;;
32505;SDS011;18955;51.224;8.482;2023-02-01T03:00:28;17.85;;;4.50;;
32505;SDS011;18955;51.224;8.482;2023-02-01T03:03:16;19.95;;;4.75;;
32505;SDS011;18955;51.224;8.482;2023-02-01T03:06:01;18.80;;;4.55;;
32505;SDS011;18955;51.224;8.482;2023-02-01T03:19:06;24.50;;;5.60;;
32505;SDS011;18955;51.224;8.482;2023-02-01T03:24:27;22.13;;;4.97;;
32505;SDS011;18955;51.224;8.482;2023-02-01T03:27:22;18.70;;;4.75;;
32505;SDS011;18955;51.224;8.482;2023-02-01T03:29:59;16.30;;;4.28;;
32505;SDS011;18955;51.224;8.482;2023-02-01T03:32:32;24.77;;;5.10;;
32505;SDS011;18955;51.224;8.482;2023-02-01T03:35:25;18.65;;;5.05;;
32505;SDS011;18955;51.224;8.482;2023-02-01T03:37:54;18.80;;;5.07;;
32505;SDS011;18955;51.224;8.482;2023-02-01T03:40:27;18.45;;;4.72;;
32505;SDS011;18955;51.224;8.482;2023-02-01T03:42:57;27.48;;;5.15;;
32505;SDS011;18955;51.224;8.482;2023-02-01T03:45:27;17.17;;;4.65;;
32505;SDS011;18955;51.224;8.482;2023-02-01T03:48:00;20.02;;;5.60;;
32505;SDS011;18955;51.224;8.482;2023-02-01T03:50:29;14.38;;;3.85;;
32505;SDS011;18955;51.224;8.482;2023-02-01T03:52:58;21.20;;;4.70;;
32505;SDS011;18955;51.224;8.482;2023-02-01T03:55:31;20.88;;;4.53;;
32505;SDS011;18955;51.224;8.482;2023-02-01T03:58:06;16.50;;;4.03;;
32505;SDS011;18955;51.224;8.482;2023-02-01T04:00:36;16.15;;;4.35;;
32505;SDS011;18955;51.224;8.482;2023-02-01T04:03:06;19.38;;;4.68;;
32505;SDS011;18955;51.224;8.482;2023-02-01T04:05:33;17.65;;;3.85;;
32505;SDS011;18955;51.224;8.482;2023-02-01T04:08:03;16.42;;;4.10;;
32505;SDS011;18955;51.224;8.482;2023-02-01T04:10:30;19.98;;;3.90;;
32505;SDS011;18955;51.224;8.482;2023-02-01T04:12:57;13.93;;;3.70;;
32505;SDS011;18955;51.224;8.482;2023-02-01T04:17:49;20.75;;;3.85;;
32505;SDS011;18955;51.224;8.482;2023-02-01T04:20:16;15.77;;;4.63;;
32505;SDS011;18955;51.224;8.482;2023-02-01T04:22:42;13.35;;;4.03;;
32505;SDS011;18955;51.224;8.482;2023-02-01T04:25:09;20.95;;;3.80;;
32505;SDS011;18955;51.224;8.482;2023-02-01T04:30:03;14.77;;;3.05;;
32505;SDS011;18955;51.224;8.482;2023-02-01T04:32:30;19.52;;;3.58;;
32505;SDS011;18955;51.224;8.482;2023-02-01T04:34:56;16.73;;;4.25;;
32505;SDS011;18955;51.224;8.482;2023-02-01T04:37:22;23.40;;;4.15;;
32505;SDS011;18955;51.224;8.482;2023-02-01T04:39:48;16.77;;;4.22;;
32505;SDS011;18955;51.224;8.482;2023-02-01T04:42:14;18.08;;;3.65;;
32505;SDS011;18955;51.224;8.482;2023-02-01T04:44:41;13.25;;;3.13;;
32505;SDS011;18955;51.224;8.482;2023-02-01T04:47:07;11.52;;;2.70;;
32505;SDS011;18955;51.224;8.482;2023-02-01T04:49:34;22.00;;;3.45;;
32505;SDS011;18955;51.224;8.482;2023-02-01T04:52:01;18.13;;;3.35;;
32505;SDS011;18955;51.224;8.482;2023-02-01T04:54:27;14.88;;;3.47;;
32505;SDS011;18955;51.224;8.482;2023-02-01T04:56:53;18.10;;;3.10;;
32505;SDS011;18955;51.224;8.482;2023-02-01T04:59:19;16.92;;;3.42;;
32505;SDS011;18955;51.224;8.482;2023-02-01T05:01:45;15.93;;;3.53;;
32505;SDS011;18955;51.224;8.482;2023-02-01T05:04:12;18.20;;;3.35;;
32505;SDS011;18955;51.224;8.482;2023-02-01T05:06:38;16.35;;;2.67;;
32505;SDS011;18955;51.224;8.482;2023-02-01T05:09:04;15.55;;;3.65;;
32505;SDS011;18955;51.224;8.482;2023-02-01T05:11:30;10.68;;;2.15;;
32505;SDS011;18955;51.224;8.482;2023-02-01T05:14:15;16.52;;;2.90;;
32505;SDS011;18955;51.224;8.482;2023-02-01T05:16:42;21.33;;;3.75;;
32505;SDS011;18955;51.224;8.482;2023-02-01T05:19:08;19.38;;;3.22;;
32505;SDS011;18955;51.224;8.482;2023-02-01T05:21:34;16.92;;;3.60;;
32505;SDS011;18955;51.224;8.482;2023-02-01T05:24:00;7.78;;;2.10;;
32505;SDS011;18955;51.224;8.482;2023-02-01T05:26:45;19.38;;;3.35;;
32505;SDS011;18955;51.224;8.482;2023-02-01T05:29:12;11.38;;;2.40;;
32505;SDS011;18955;51.224;8.482;2023-02-01T05:31:39;15.95;;;3.22;;
32505;SDS011;18955;51.224;8.482;2023-02-01T05:34:05;16.33;;;3.45;;
32505;SDS011;18955;51.224;8.482;2023-02-01T05:36:32;19.80;;;3.80;;
32505;SDS011;18955;51.224;8.482;2023-02-01T05:41:24;13.50;;;2.75;;
32505;SDS011;18955;51.224;8.482;2023-02-01T05:43:51;13.73;;;3.35;;
32505;SDS011;18955;51.224;8.482;2023-02-01T05:46:17;20.52;;;3.28;;
32505;SDS011;18955;51.224;8.482;2023-02-01T05:48:43;12.80;;;2.65;;
32505;SDS011;18955;51.224;8.482;2023-02-01T05:51:10;15.23;;;3.22;;
32505;SDS011;18955;51.224;8.482;2023-02-01T05:53:36;21.42;;;3.33;;
32505;SDS011;18955;51.224;8.482;2023-02-01T05:56:03;16.85;;;3.80;;
32505;SDS011;18955;51.224;8.482;2023-02-01T05:58:29;15.75;;;3.50;;
32505;SDS011;18955;51.224;8.482;2023-02-01T06:00:58;21.13;;;3.67;;
32505;SDS011;18955;51.224;8.482;2023-02-01T06:03:25;17.98;;;3.78;;
32505;SDS011;18955;51.224;8.482;2023-02-01T06:05:52;11.43;;;3.63;;
32505;SDS011;18955;51.224;8.482;2023-02-01T06:08:19;17.27;;;3.95;;
32505;SDS011;18955;51.224;8.482;2023-02-01T06:10:45;10.43;;;3.20;;
32505;SDS011;18955;51.224;8.482;2023-02-01T06:13:11;12.93;;;3.55;;
32505;SDS011;18955;51.224;8.482;2023-02-01T06:15:37;13.88;;;3.80;;
32505;SDS011;18955;51.224;8.482;2023-02-01T06:18:04;19.10;;;4.65;;
32505;SDS011;18955;51.224;8.482;2023-02-01T06:20:30;13.88;;;3.20;;
32505;SDS011;18955;51.224;8.482;2023-02-01T06:22:56;14.23;;;2.75;;
32505;SDS011;18955;51.224;8.482;2023-02-01T06:25:22;14.27;;;3.00;;
32505;SDS011;18955;51.224;8.482;2023-02-01T06:27:48;21.48;;;3.83;;
32505;SDS011;18955;51.224;8.482;2023-02-01T06:30:15;19.08;;;3.90;;
32505;SDS011;18955;51.224;8.482;2023-02-01T06:32:42;18.75;;;4.28;;
32505;SDS011;18955;51.224;8.482;2023-02-01T06:35:09;19.20;;;4.03;;
32505;SDS011;18955;51.224;8.482;2023-02-01T06:37:41;15.05;;;3.90;;
32505;SDS011;18955;51.224;8.482;2023-02-01T06:42:34;16.30;;;3.58;;
32505;SDS011;18955;51.224;8.482;2023-02-01T06:45:00;14.48;;;3.20;;
32505;SDS011;18955;51.224;8.482;2023-02-01T06:47:26;9.77;;;2.53;;
32505;SDS011;18955;51.224;8.482;2023-02-01T06:49:53;17.77;;;2.53;;
32505;SDS011;18955;51.224;8.482;2023-02-01T06:52:19;14.88;;;3.00;;
32505;SDS011;18955;51.224;8.482;2023-02-01T06:54:45;16.33;;;4.28;;
32505;SDS011;18955;51.224;8.482;2023-02-01T06:57:11;16.15;;;3.70;;
32505;SDS011;18955;51.224;8.482;2023-02-01T06:59:37;14.95;;;3.88;;
32505;SDS011;18955;51.224;8.482;2023-02-01T07:02:03;16.38;;;3.30;;
32505;SDS011;18955;51.224;8.482;2023-02-01T07:04:30;15.30;;;3.42;;
32505;SDS011;18955;51.224;8.482;2023-02-01T07:06:56;14.43;;;2.97;;
32505;SDS011;18955;51.224;8.482;2023-02-01T07:09:22;18.98;;;3.58;;
32505;SDS011;18955;51.224;8.482;2023-02-01T07:11:48;14.32;;;2.67;;
32505;SDS011;18955;51.224;8.482;2023-02-01T07:14:14;16.63;;;3.40;;
32505;SDS011;18955;51.224;8.482;2023-02-01T07:16:41;19.10;;;3.97;;
32505;SDS011;18955;51.224;8.482;2023-02-01T07:19:07;17.25;;;2.92;;
32505;SDS011;18955;51.224;8.482;2023-02-01T07:21:33;20.35;;;4.28;;
32505;SDS011;18955;51.224;8.482;2023-02-01T07:23:59;18.52;;;4.20;;
32505;SDS011;18955;51.224;8.482;2023-02-01T07:26:26;14.43;;;3.20;;
32505;SDS011;18955;51.224;8.482;2023-02-01T07:28:52;7.57;;;2.25;;
32505;SDS011;18955;51.224;8.482;2023-02-01T07:31:18;14.93;;;3.60;;
32505;SDS011;18955;51.224;8.482;2023-02-01T07:33:47;12.60;;;3.20;;
32505;SDS011;18955;51.224;8.482;2023-02-01T07:36:17;15.50;;;3.60;;
32505;SDS011;18955;51.224;8.482;2023-02-01T07:38:44;16.50;;;3.13;;
32505;SDS011;18955;51.224;8.482;2023-02-01T07:41:12;14.65;;;3.10;;
32505;SDS011;18955;51.224;8.482;2023-02-01T07:43:39;20.55;;;3.85;;
32505;SDS011;18955;51.224;8.482;2023-02-01T07:46:05;20.88;;;3.38;;
32505;SDS011;18955;51.224;8.482;2023-02-01T07:48:33;19.02;;;3.63;;
32505;SDS011;18955;51.224;8.482;2023-02-01T07:51:00;18.38;;;3.53;;
32505;SDS011;18955;51.224;8.482;2023-02-01T07:53:31;15.05;;;2.88;;
32505;SDS011;18955;51.224;8.482;2023-02-01T07:55:59;13.90;;;3.33;;
32505;SDS011;18955;51.224;8.482;2023-02-01T07:58:26;18.95;;;3.75;;
32505;SDS011;18955;51.224;8.482;2023-02-01T08:00:52;15.10;;;3.40;;
32505;SDS011;18955;51.224;8.482;2023-02-01T08:03:37;14.18;;;3.60;;
32505;SDS011;18955;51.224;8.482;2023-02-01T08:08:31;9.88;;;2.15;;
32505;SDS011;18955;51.224;8.482;2023-02-01T08:11:01;14.02;;;3.30;;
32505;SDS011;18955;51.224;8.482;2023-02-01T08:13:29;15.48;;;3.45;;
32505;SDS011;18955;51.224;8.482;2023-02-01T08:15:59;18.60;;;3.58;;
32505;SDS011;18955;51.224;8.482;2023-02-01T08:18:26;15.32;;;3.92;;
32505;SDS011;18955;51.224;8.482;2023-02-01T08:20:53;13.68;;;3.55;;
32505;SDS011;18955;51.224;8.482;2023-02-01T08:23:20;12.75;;;2.80;;
32505;SDS011;18955;51.224;8.482;2023-02-01T08:25:47;19.55;;;3.63;;
32505;SDS011;18955;51.224;8.482;2023-02-01T08:28:13;18.10;;;3.45;;
32505;SDS011;18955;51.224;8.482;2023-02-01T08:30:40;14.82;;;3.00;;
32505;SDS011;18955;51.224;8.482;2023-02-01T08:33:07;20.30;;;4.88;;
32505;SDS011;18955;51.224;8.482;2023-02-01T08:35:34;13.13;;;3.28;;
32505;SDS011;18955;51.224;8.482;2023-02-01T08:38:02;17.45;;;3.40;;
32505;SDS011;18955;51.224;8.482;2023-02-01T08:40:28;15.75;;;4.32;;
32505;SDS011;18955;51.224;8.482;2023-02-01T08:42:55;19.13;;;3.53;;
32505;SDS011;18955;51.224;8.482;2023-02-01T08:45:26;12.55;;;3.53;;
32505;SDS011;18955;51.224;8.482;2023-02-01T08:47:54;12.93;;;3.40;;
32505;SDS011;18955;51.224;8.482;2023-02-01T08:52:48;14.73;;;4.10;;
32505;SDS011;18955;51.224;8.482;2023-02-01T08:55:14;13.93;;;4.32;;
32505;SDS011;18955;51.224;8.482;2023-02-01T08:57:41;14.43;;;3.42;;
32505;SDS011;18955;51.224;8.482;2023-02-01T09:00:09;13.90;;;3.88;;
32505;SDS011;18955;51.224;8.482;2023-02-01T09:02:39;11.85;;;3.10;;
32505;SDS011;18955;51.224;8.482;2023-02-01T09:05:05;18.88;;;3.72;;
32505;SDS011;18955;51.224;8.482;2023-02-01T09:07:32;12.38;;;3.33;;
32505;SDS011;18955;51.224;8.482;2023-02-01T09:09:59;13.70;;;3.50;;
32505;SDS011;18955;51.224;8.482;2023-02-01T09:12:27;16.70;;;3.65;;
32505;SDS011;18955;51.224;8.482;2023-02-01T09:14:55;16.48;;;3.90;;
32505;SDS011;18955;51.224;8.482;2023-02-01T09:17:22;12.07;;;3.83;;
32505;SDS011;18955;51.224;8.482;2023-02-01T09:22:15;13.52;;;4.00;;
32505;SDS011;18955;51.224;8.482;2023-02-01T09:24:42;18.10;;;4.30;;
32505;SDS011;18955;51.224;8.482;2023-02-01T09:27:08;16.60;;;4.10;;
32505;SDS011;18955;51.224;8.482;2023-02-01T09:29:34;15.27;;;3.50;;
32505;SDS011;18955;51.224;8.482;2023-02-01T09:32:01;10.82;;;3.63;;
32505;SDS011;18955;51.224;8.482;2023-02-01T09:34:27;15.77;;;4.13;;
32505;SDS011;18955;51.224;8.482;2023-02-01T09:36:53;14.15;;;3.10;;
32505;SDS011;18955;51.224;8.482;2023-02-01T09:39:19;21.83;;;3.90;;
32505;SDS011;18955;51.224;8.482;2023-02-01T09:44:42;10.48;;;3.92;;
32505;SDS011;18955;51.224;8.482;2023-02-01T09:47:40;20.65;;;4.20;;
32505;SDS011;18955;51.224;8.482;2023-02-01T09:50:18;13.95;;;3.78;;
32505;SDS011;18955;51.224;8.482;2023-02-01T09:55:30;20.48;;;3.95;;
32505;SDS011;18955;51.224;8.482;2023-02-01T09:58:05;12.30;;;3.33;;
32505;SDS011;18955;51.224;8.482;2023-02-01T10:00:53;19.38;;;4.07;;
32505;SDS011;18955;51.224;8.482;2023-02-01T10:03:21;17.20;;;4.25;;
32505;SDS011;18955;51.224;8.482;2023-02-01T10:06:16;16.58;;;3.92;;
32505;SDS011;18955;51.224;8.482;2023-02-01T10:11:42;12.73;;;3.67;;
32505;SDS011;18955;51.224;8.482;2023-02-01T10:22:42;17.80;;;3.70;;
32505;SDS011;18955;51.224;8.482;2023-02-01T10:27:37;16.30;;;3.85;;
32505;SDS011;18955;51.224;8.482;2023-02-01T10:32:38;16.92;;;4.00;;
32505;SDS011;18955;51.224;8.482;2023-02-01T10:37:38;15.77;;;3.78;;
32505;SDS011;18955;51.224;8.482;2023-02-01T10:42:43;18.83;;;4.20;;
32505;SDS011;18955;51.224;8.482;2023-02-01T10:45:13;23.55;;;4.40;;
32505;SDS011;18955;51.224;8.482;2023-02-01T10:47:42;21.75;;;3.97;;
32505;SDS011;18955;51.224;8.482;2023-02-01T10:50:13;15.68;;;4.05;;
32505;SDS011;18955;51.224;8.482;2023-02-01T10:57:59;12.43;;;3.30;;
32505;SDS011;18955;51.224;8.482;2023-02-01T11:00:28;16.05;;;3.30;;
32505;SDS011;18955;51.224;8.482;2023-02-01T11:03:21;18.67;;;4.10;;
32505;SDS011;18955;51.224;8.482;2023-02-01T11:11:55;16.13;;;3.63;;
32505;SDS011;18955;51.224;8.482;2023-02-01T11:16:54;14.90;;;3.58;;
32505;SDS011;18955;51.224;8.482;2023-02-01T11:19:23;18.63;;;4.63;;
32505;SDS011;18955;51.224;8.482;2023-02-01T11:21:50;17.80;;;3.35;;
32505;SDS011;18955;51.224;8.482;2023-02-01T11:26:51;10.90;;;3.50;;
32505;SDS011;18955;51.224;8.482;2023-02-01T11:29:20;17.20;;;3.90;;
32505;SDS011;18955;51.224;8.482;2023-02-01T11:31:54;17.75;;;3.72;;
32505;SDS011;18955;51.224;8.482;2023-02-01T11:34:26;19.42;;;4.07;;
32505;SDS011;18955;51.224;8.482;2023-02-01T11:37:00;20.98;;;4.00;;
32505;SDS011;18955;51.224;8.482;2023-02-01T11:39:30;15.80;;;3.75;;
32505;SDS011;18955;51.224;8.482;2023-02-01T11:42:00;13.40;;;3.63;;
32505;SDS011;18955;51.224;8.482;2023-02-01T11:44:31;15.65;;;3.30;;
32505;SDS011;18955;51.224;8.482;2023-02-01T11:49:51;17.35;;;3.60;;
32505;SDS011;18955;51.224;8.482;2023-02-01T11:58:25;17.67;;;4.63;;
32505;SDS011;18955;51.224;8.482;2023-02-01T12:04:13;16.23;;;3.60;;
32505;SDS011;18955;51.224;8.482;2023-02-01T12:06:56;14.70;;;3.45;;
32505;SDS011;18955;51.224;8.482;2023-02-01T12:09:35;23.88;;;4.78;;
32505;SDS011;18955;51.224;8.482;2023-02-01T12:12:16;15.23;;;3.63;;
32505;SDS011;18955;51.224;8.482;2023-02-01T12:28:51;16.15;;;3.50;;
32505;SDS011;18955;51.224;8.482;2023-02-01T12:44:53;18.88;;;4.53;;
32505;SDS011;18955;51.224;8.482;2023-02-01T12:48:12;16.80;;;4.10;;
32505;SDS011;18955;51.224;8.482;2023-02-01T12:50:27;16.17;;;3.40;;
32505;SDS011;18955;51.224;8.482;2023-02-01T12:56:02;11.90;;;2.67;;
32505;SDS011;18955;51.224;8.482;2023-02-01T12:58:49;12.90;;;3.08;;
32505;SDS011;18955;51.224;8.482;2023-02-01T13:04:05;12.23;;;2.83;;
32505;SDS011;18955;51.224;8.482;2023-02-01T13:06:50;16.48;;;3.80;;
32505;SDS011;18955;51.224;8.482;2023-02-01T13:09:34;13.30;;;2.92;;
32505;SDS011;18955;51.224;8.482;2023-02-01T13:12:30;9.77;;;2.60;;
32505;SDS011;18955;51.224;8.482;2023-02-01T13:15:11;9.18;;;2.33;;
32505;SDS011;18955;51.224;8.482;2023-02-01T13:17:49;7.00;;;1.15;;
32505;SDS011;18955;51.224;8.482;2023-02-01T13:20:30;5.95;;;1.90;;
32505;SDS011;18955;51.224;8.482;2023-02-01T13:25:48;6.32;;;2.22;;
32505;SDS011;18955;51.224;8.482;2023-02-01T13:28:20;6.78;;;2.35;;
32505;SDS011;18955;51.224;8.482;2023-02-01T13:34:22;5.47;;;1.85;;
32505;SDS011;18955;51.224;8.482;2023-02-01T13:42:29;9.57;;;2.20;;
32505;SDS011;18955;51.224;8.482;2023-02-01T13:45:29;8.05;;;2.60;;
32505;SDS011;18955;51.224;8.482;2023-02-01T13:47:59;7.97;;;2.80;;
32505;SDS011;18955;51.224;8.482;2023-02-01T13:55:31;7.70;;;2.92;;
32505;SDS011;18955;51.224;8.482;2023-02-01T13:58:01;8.25;;;2.80;;
32505;SDS011;18955;51.224;8.482;2023-02-01T14:00:36;7.78;;;2.58;;
32505;SDS011;18955;51.224;8.482;2023-02-01T14:08:45;8.15;;;2.90;;
32505;SDS011;18955;51.224;8.482;2023-02-01T14:11:00;13.52;;;2.65;;
32505;SDS011;18955;51.224;8.482;2023-02-01T14:13:32;5.22;;;2.08;;
32505;SDS011;18955;51.224;8.482;2023-02-01T14:27:02;7.97;;;2.25;;
32505;SDS011;18955;51.224;8.482;2023-02-01T14:37:09;2.38;;;1.42;;
32505;SDS011;18955;51.224;8.482;2023-02-01T15:01:05;7.00;;;2.45;;
32505;SDS011;18955;51.224;8.482;2023-02-01T15:03:56;7.43;;;2.22;;
32505;SDS011;18955;51.224;8.482;2023-02-01T15:06:42;10.48;;;2.25;;
32505;SDS011;18955;51.224;8.482;2023-02-01T15:14:23;6.68;;;2.20;;
32505;SDS011;18955;51.224;8.482;2023-02-01T15:16:50;8.35;;;2.33;;
32505;SDS011;18955;51.224;8.482;2023-02-01T15:19:20;5.85;;;1.73;;
32505;SDS011;18955;51.224;8.482;2023-02-01T15:21:49;7.05;;;2.00;;
32505;SDS011;18955;51.224;8.482;2023-02-01T15:24:21;8.65;;;2.15;;
32505;SDS011;18955;51.224;8.482;2023-02-01T15:26:52;6.63;;;1.70;;
32505;SDS011;18955;51.224;8.482;2023-02-01T15:29:20;4.85;;;2.00;;
32505;SDS011;18955;51.224;8.482;2023-02-01T15:31:49;5.60;;;1.73;;
32505;SDS011;18955;51.224;8.482;2023-02-01T15:34:17;5.43;;;2.30;;
32505;SDS011;18955;51.224;8.482;2023-02-01T15:36:44;9.57;;;2.45;;
32505;SDS011;18955;51.224;8.482;2023-02-01T15:41:46;9.40;;;2.80;;
32505;SDS011;18955;51.224;8.482;2023-02-01T15:44:27;10.75;;;2.67;;
32505;SDS011;18955;51.224;8.482;2023-02-01T15:47:07;6.45;;;1.83;;
32505;SDS011;18955;51.224;8.482;2023-02-01T15:49:39;10.23;;;2.97;;
32505;SDS011;18955;51.224;8.482;2023-02-01T15:52:22;8.82;;;3.00;;
32505;SDS011;18955;51.224;8.482;2023-02-01T15:54:54;9.85;;;2.92;;
32505;SDS011;18955;51.224;8.482;2023-02-01T15:57:45;12.15;;;3.13;;
32505;SDS011;18955;51.224;8.482;2023-02-01T16:00:24;9.35;;;3.45;;
32505;SDS011;18955;51.224;8.482;2023-02-01T16:05:39;9.25;;;3.17;;
32505;SDS011;18955;51.224;8.482;2023-02-01T16:08:13;12.43;;;2.83;;
32505;SDS011;18955;51.224;8.482;2023-02-01T16:10:40;15.05;;;3.33;;
32505;SDS011;18955;51.224;8.482;2023-02-01T16:13:08;18.80;;;3.75;;
32505;SDS011;18955;51.224;8.482;2023-02-01T16:15:35;15.35;;;4.20;;
32505;SDS011;18955;51.224;8.482;2023-02-01T16:18:01;14.35;;;3.30;;
32505;SDS011;18955;51.224;8.482;2023-02-01T16:20:28;14.15;;;3.33;;
32505;SDS011;18955;51.224;8.482;2023-02-01T16:22:55;8.52;;;2.90;;
32505;SDS011;18955;51.224;8.482;2023-02-01T16:25:22;8.27;;;3.03;;
32505;SDS011;18955;51.224;8.482;2023-02-01T16:27:48;5.80;;;2.10;;
32505;SDS011;18955;51.224;8.482;2023-02-01T16:30:14;6.90;;;2.50;;
32505;SDS011;18955;51.224;8.482;2023-02-01T16:32:41;11.93;;;3.13;;
32505;SDS011;18955;51.224;8.482;2023-02-01T16:35:19;7.00;;;2.30;;
32505;SDS011;18955;51.224;8.482;2023-02-01T16:37:49;12.60;;;2.90;;
32505;SDS011;18955;51.224;8.482;2023-02-01T16:40:16;10.43;;;3.20;;
32505;SDS011;18955;51.224;8.482;2023-02-01T16:42:43;8.90;;;3.25;;
32505;SDS011;18955;51.224;8.482;2023-02-01T16:45:11;15.32;;;3.70;;
32505;SDS011;18955;51.224;8.482;2023-02-01T16:47:38;17.98;;;3.78;;
32505;SDS011;18955;51.224;8.482;2023-02-01T16:50:15;10.68;;;3.55;;
32505;SDS011;18955;51.224;8.482;2023-02-01T16:52:43;11.00;;;3.38;;
32505;SDS011;18955;51.224;8.482;2023-02-01T16:55:14;19.90;;;3.92;;
32505;SDS011;18955;51.224;8.482;2023-02-01T16:57:45;10.18;;;3.15;;
32505;SDS011;18955;51.224;8.482;2023-02-01T17:00:11;12.38;;;3.53;;
32505;SDS011;18955;51.224;8.482;2023-02-01T17:02:38;12.63;;;4.13;;
32505;SDS011;18955;51.224;8.482;2023-02-01T17:05:05;14.48;;;3.58;;
32505;SDS011;18955;51.224;8.482;2023-02-01T17:09:58;9.52;;;3.30;;
32505;SDS011;18955;51.224;8.482;2023-02-01T17:12:28;14.27;;;3.60;;
32505;SDS011;18955;51.224;8.482;2023-02-01T17:14:56;14.85;;;4.30;;
32505;SDS011;18955;51.224;8.482;2023-02-01T17:17:23;13.48;;;4.22;;
32505;SDS011;18955;51.224;8.482;2023-02-01T17:19:57;10.90;;;3.22;;
32505;SDS011;18955;51.224;8.482;2023-02-01T17:22:24;7.68;;;2.30;;
32505;SDS011;18955;51.224;8.482;2023-02-01T17:24:50;15.02;;;3.78;;
32505;SDS011;18955;51.224;8.482;2023-02-01T17:27:16;11.80;;;3.38;;
32505;SDS011;18955;51.224;8.482;2023-02-01T17:29:43;7.55;;;3.30;;
32505;SDS011;18955;51.224;8.482;2023-02-01T17:32:15;8.30;;;3.15;;
32505;SDS011;18955;51.224;8.482;2023-02-01T17:34:47;9.55;;;3.75;;
32505;SDS011;18955;51.224;8.482;2023-02-01T17:37:24;9.90;;;3.50;;
32505;SDS011;18955;51.224;8.482;2023-02-01T17:39:55;8.20;;;2.80;;
32505;SDS011;18955;51.224;8.482;2023-02-01T17:44:54;8.48;;;3.03;;
32505;SDS011;18955;51.224;8.482;2023-02-01T17:47:22;8.75;;;2.72;;
32505;SDS011;18955;51.224;8.482;2023-02-01T17:49:49;7.07;;;2.78;;
32505;SDS011;18955;51.224;8.482;2023-02-01T17:52:21;5.70;;;2.25;;
32505;SDS011;18955;51.224;8.482;2023-02-01T17:54:48;6.75;;;2.53;;
32505;SDS011;18955;51.224;8.482;2023-02-01T17:57:18;7.05;;;2.13;;
32505;SDS011;18955;51.224;8.482;2023-02-01T17:59:44;3.83;;;1.80;;
32505;SDS011;18955;51.224;8.482;2023-02-01T18:02:22;4.43;;;2.17;;
32505;SDS011;18955;51.224;8.482;2023-02-01T18:07:15;4.10;;;2.42;;
32505;SDS011;18955;51.224;8.482;2023-02-01T18:09:42;2.80;;;1.65;;
32505;SDS011;18955;51.224;8.482;2023-02-01T18:12:13;2.25;;;1.45;;
32505;SDS011;18955;51.224;8.482;2023-02-01T18:14:45;1.25;;;1.10;;
32505;SDS011;18955;51.224;8.482;2023-02-01T18:17:11;5.38;;;0.90;;
32505;SDS011;18955;51.224;8.482;2023-02-01T18:19:38;2.13;;;0.77;;
32505;SDS011;18955;51.224;8.482;2023-02-01T18:22:04;2.60;;;1.27;;
32505;SDS011;18955;51.224;8.482;2023-02-01T18:24:31;5.57;;;1.52;;
32505;SDS011;18955;51.224;8.482;2023-02-01T18:26:59;3.65;;;1.85;;
32505;SDS011;18955;51.224;8.482;2023-02-01T18:29:25;4.55;;;2.10;;
32505;SDS011;18955;51.224;8.482;2023-02-01T18:31:51;7.47;;;2.72;;
32505;SDS011;18955;51.224;8.482;2023-02-01T18:34:18;6.53;;;2.47;;
32505;SDS011;18955;51.224;8.482;2023-02-01T18:36:49;9.30;;;2.67;;
32505;SDS011;18955;51.224;8.482;2023-02-01T18:39:16;10.25;;;2.95;;
32505;SDS011;18955;51.224;8.482;2023-02-01T18:44:12;8.05;;;2.97;;
32505;SDS011;18955;51.224;8.482;2023-02-01T18:46:40;5.88;;;2.78;;